createdAt,value
2023-05-06T00:01:02.705Z,100.00
2023-05-06T00:03:37.352Z,100.00
2023-05-06T00:06:12.374Z,100.00
2023-05-06T00:08:45.426Z,100.00
2023-05-06T00:11:17.717Z,100.00
2023-05-06T00:13:49.876Z,100.00
2023-05-06T00:16:25.776Z,100.00
2023-05-06T00:18:57.966Z,100.00
2023-05-06T00:21:30.585Z,100.00
2023-05-06T00:24:07.527Z,100.00
2023-05-06T00:26:42.442Z,100.00
2023-05-06T00:29:17.492Z,100.00
2023-05-06T00:31:49.737Z,100.00
2023-05-06T00:34:21.947Z,100.00
2023-05-06T00:36:54.345Z,100.00
2023-05-06T00:39:27.005Z,100.00
2023-05-06T00:42:02.711Z,100.00
2023-05-06T00:44:34.963Z,100.00
2023-05-06T00:47:11.104Z,100.00
2023-05-06T00:49:46.048Z,100.00
2023-05-06T00:52:20.287Z,100.00
2023-05-06T00:54:52.931Z,100.00
2023-05-06T00:57:25.386Z,100.00
2023-05-06T00:59:57.637Z,100.00
2023-05-06T01:02:43.314Z,100.00
2023-05-06T01:05:22.525Z,100.00
2023-05-06T01:08:27.458Z,100.00
2023-05-06T01:11:08.265Z,100.00
2023-05-06T01:13:59.227Z,100.00
2023-05-06T01:16:36.681Z,100.00
2023-05-06T01:19:25.908Z,100.00
2023-05-06T01:22:01.637Z,100.00
2023-05-06T01:24:44.730Z,100.00
2023-05-06T01:27:17.081Z,100.00
2023-05-06T01:29:50.123Z,100.00
2023-05-06T01:32:47.167Z,100.00
2023-05-06T01:35:50.799Z,100.00
2023-05-06T01:38:28.184Z,100.00
2023-05-06T01:41:02.181Z,100.00
2023-05-06T01:43:44.920Z,100.00
2023-05-06T01:46:22.282Z,100.00
2023-05-06T01:48:56.952Z,100.00
2023-05-06T01:51:35.354Z,100.00
2023-05-06T01:54:07.771Z,100.00
2023-05-06T01:56:40.131Z,100.00
2023-05-06T01:59:12.604Z,100.00
2023-05-06T02:01:45.271Z,100.00
2023-05-06T02:04:17.856Z,100.00
2023-05-06T02:06:52.921Z,100.00
2023-05-06T02:09:25.256Z,100.00
2023-05-06T02:11:57.626Z,100.00
2023-05-06T02:14:29.711Z,100.00
2023-05-06T02:17:05.985Z,100.00
2023-05-06T02:19:38.230Z,100.00
2023-05-06T02:22:12.219Z,100.00
2023-05-06T02:24:44.381Z,100.00
2023-05-06T02:27:16.740Z,100.00
2023-05-06T02:29:49.009Z,100.00
2023-05-06T02:32:21.446Z,100.00
2023-05-06T02:34:53.914Z,100.00
2023-05-06T02:37:26.196Z,100.00
2023-05-06T02:39:58.369Z,100.00
2023-05-06T02:42:30.941Z,100.00
2023-05-06T02:45:06.454Z,100.00
2023-05-06T02:47:38.650Z,100.00
2023-05-06T02:50:11.422Z,100.00
2023-05-06T02:52:47.539Z,100.00
2023-05-06T02:55:20.185Z,100.00
2023-05-06T02:57:52.305Z,100.00
2023-05-06T03:00:24.566Z,100.00
2023-05-06T03:02:56.882Z,100.00
2023-05-06T03:05:31.764Z,100.00
2023-05-06T03:08:04.044Z,100.00
2023-05-06T03:10:39.400Z,100.00
2023-05-06T03:13:15.072Z,100.00
2023-05-06T03:15:54.871Z,100.00
2023-05-06T03:18:27.058Z,100.00
2023-05-06T03:20:59.338Z,100.00
2023-05-06T03:23:31.613Z,100.00
2023-05-06T03:26:03.884Z,100.00
2023-05-06T03:28:36.082Z,100.00
2023-05-06T03:31:08.419Z,100.00
2023-05-06T03:33:41.313Z,100.00
2023-05-06T03:36:14.327Z,100.00
2023-05-06T03:38:46.840Z,100.00
2023-05-06T03:41:19.145Z,100.00
2023-05-06T03:43:55.853Z,100.00
2023-05-06T03:46:28.138Z,100.00
2023-05-06T03:49:03.004Z,100.00
2023-05-06T03:51:35.822Z,100.00
2023-05-06T03:54:08.560Z,100.00
2023-05-06T03:56:41.233Z,100.00
2023-05-06T03:59:13.428Z,100.00
2023-05-06T04:01:45.975Z,100.00
2023-05-06T04:04:18.372Z,100.00
2023-05-06T04:06:51.161Z,100.00
2023-05-06T04:09:24.195Z,100.00
2023-05-06T04:11:56.504Z,100.00
2023-05-06T04:14:28.610Z,100.00
2023-05-06T04:17:00.996Z,100.00
2023-05-06T04:19:35.895Z,100.00
2023-05-06T04:22:08.077Z,100.00
2023-05-06T04:24:42.031Z,100.00
2023-05-06T04:27:17.318Z,100.00
2023-05-06T04:29:49.486Z,100.00
2023-05-06T04:32:21.800Z,100.00
2023-05-06T04:34:54.388Z,100.00
2023-05-06T04:37:28.539Z,100.00
2023-05-06T04:40:02.884Z,100.00
2023-05-06T04:42:35.133Z,100.00
2023-05-06T04:45:08.334Z,100.00
2023-05-06T04:47:41.080Z,100.00
2023-05-06T04:50:13.779Z,100.00
2023-05-06T04:52:46.057Z,100.00
2023-05-06T04:55:18.237Z,100.00
2023-05-06T04:57:50.362Z,100.00
2023-05-06T05:00:22.866Z,100.00
2023-05-06T05:02:55.116Z,100.00
2023-05-06T05:05:32.352Z,100.00
2023-05-06T05:08:04.684Z,100.00
2023-05-06T05:10:36.844Z,100.00
2023-05-06T05:13:14.601Z,100.00
2023-05-06T05:15:46.848Z,100.00
2023-05-06T05:18:21.207Z,100.00
2023-05-06T05:20:56.409Z,100.00
2023-05-06T05:23:28.501Z,100.00
2023-05-06T05:26:02.126Z,100.00
2023-05-06T05:28:34.328Z,100.00
2023-05-06T05:31:08.341Z,100.00
2023-05-06T05:33:41.985Z,100.00
2023-05-06T05:36:17.385Z,100.00
2023-05-06T05:38:50.487Z,100.00
2023-05-06T05:41:22.683Z,100.00
2023-05-06T05:43:54.816Z,100.00
2023-05-06T05:46:27.660Z,100.00
2023-05-06T05:48:59.785Z,100.00
2023-05-06T05:51:32.047Z,100.00
2023-05-06T05:54:04.316Z,100.00
2023-05-06T05:56:36.488Z,100.00
2023-05-06T05:59:09.030Z,100.00
2023-05-06T06:01:41.237Z,100.00
2023-05-06T06:04:13.426Z,100.00
2023-05-06T06:06:47.021Z,100.00
2023-05-06T06:09:19.312Z,100.00
2023-05-06T06:11:51.894Z,100.00
2023-05-06T06:14:24.048Z,100.00
2023-05-06T06:16:56.406Z,100.00
2023-05-06T06:19:28.559Z,100.00
2023-05-06T06:22:00.984Z,100.00
2023-05-06T06:24:36.436Z,100.00
2023-05-06T06:27:08.664Z,100.00
2023-05-06T06:29:40.959Z,100.00
2023-05-06T06:32:13.243Z,98.51
2023-05-06T06:34:45.653Z,100.00
2023-05-06T06:37:17.931Z,100.00
2023-05-06T06:39:50.064Z,100.00
2023-05-06T06:42:22.170Z,100.00
2023-05-06T06:44:54.231Z,100.00
2023-05-06T06:47:26.526Z,100.00
2023-05-06T06:49:58.647Z,100.00
2023-05-06T06:52:30.851Z,99.13
2023-05-06T06:55:03.565Z,99.63
2023-05-06T06:57:38.024Z,99.21
2023-05-06T07:00:11.037Z,98.50
2023-05-06T07:02:43.193Z,99.80
2023-05-06T07:05:15.628Z,99.28
2023-05-06T07:07:47.763Z,98.74
2023-05-06T07:10:20.075Z,97.06
2023-05-06T07:12:52.229Z,97.68
2023-05-06T07:15:24.989Z,96.14
2023-05-06T07:17:57.150Z,96.51
2023-05-06T07:20:29.294Z,96.88
2023-05-06T07:23:01.502Z,96.98
2023-05-06T07:25:33.666Z,97.53
2023-05-06T07:28:06.158Z,96.32
2023-05-06T07:30:39.416Z,96.69
2023-05-06T07:33:12.725Z,95.85
2023-05-06T07:35:50.140Z,96.52
2023-05-06T07:38:38.697Z,98.03
2023-05-06T07:41:27.129Z,94.63
2023-05-06T07:43:59.221Z,94.81
2023-05-06T07:46:32.329Z,93.92
2023-05-06T07:49:05.483Z,93.72
2023-05-06T07:51:39.877Z,94.76
2023-05-06T07:54:14.090Z,94.75
2023-05-06T07:57:05.258Z,92.61
2023-05-06T07:59:37.820Z,93.64
2023-05-06T08:02:10.823Z,90.17
2023-05-06T08:04:43.441Z,89.86
2023-05-06T08:07:16.916Z,91.56
2023-05-06T08:09:49.414Z,90.89
2023-05-06T08:12:21.617Z,91.66
2023-05-06T08:14:55.092Z,91.32
2023-05-06T08:17:27.419Z,92.22
2023-05-06T08:19:59.666Z,88.98
2023-05-06T08:22:34.545Z,90.96
2023-05-06T08:25:07.633Z,89.69
2023-05-06T08:27:40.721Z,88.82
2023-05-06T08:30:13.961Z,88.39
2023-05-06T08:32:49.202Z,88.54
2023-05-06T08:35:21.667Z,89.26
2023-05-06T08:37:53.780Z,89.99
2023-05-06T08:40:28.165Z,90.05
2023-05-06T08:43:01.736Z,91.65
2023-05-06T08:45:34.275Z,91.60
2023-05-06T08:48:06.998Z,91.45
2023-05-06T08:50:44.307Z,90.60
2023-05-06T08:53:17.250Z,90.82
2023-05-06T08:55:51.984Z,89.83
2023-05-06T08:58:26.571Z,88.90
2023-05-06T09:01:00.524Z,89.08
2023-05-06T09:03:32.782Z,88.64
2023-05-06T09:06:05.894Z,88.14
2023-05-06T09:08:38.555Z,87.00
2023-05-06T09:15:11.590Z,85.06
2023-05-06T09:17:44.879Z,84.70
2023-05-06T09:20:23.929Z,85.46
2023-05-06T09:22:56.145Z,83.24
2023-05-06T09:25:29.847Z,79.78
2023-05-06T09:28:08.928Z,73.89
2023-05-06T09:30:43.657Z,72.50
2023-05-06T09:33:16.495Z,68.77
2023-05-06T09:35:50.206Z,68.40
2023-05-06T09:38:22.621Z,68.53
2023-05-06T09:40:54.992Z,70.17
2023-05-06T09:43:27.229Z,71.49
2023-05-06T09:46:02.968Z,73.05
2023-05-06T09:48:36.780Z,74.76
2023-05-06T09:51:12.269Z,75.43
2023-05-06T09:53:45.721Z,70.46
2023-05-06T09:56:18.108Z,68.14
2023-05-06T09:58:52.873Z,63.08
2023-05-06T10:01:35.992Z,62.88
2023-05-06T10:04:10.530Z,59.26
2023-05-06T10:06:44.728Z,55.68
2023-05-06T10:09:17.857Z,55.97
2023-05-06T10:11:52.479Z,59.76
2023-05-06T10:14:25.652Z,62.03
2023-05-06T10:16:58.540Z,62.20
2023-05-06T10:19:32.811Z,63.07
2023-05-06T10:22:30.504Z,66.76
2023-05-06T10:25:38.394Z,60.78
2023-05-06T10:28:14.695Z,56.91
2023-05-06T10:30:59.810Z,56.83
2023-05-06T10:33:32.517Z,57.37
2023-05-06T10:36:25.595Z,58.21
2023-05-06T10:39:03.744Z,57.67
2023-05-06T10:41:38.760Z,56.49
2023-05-06T10:44:14.359Z,57.13
2023-05-06T10:47:13.064Z,57.42
2023-05-06T10:50:24.714Z,56.38
2023-05-06T10:52:59.533Z,56.12
2023-05-06T10:55:34.828Z,53.21
2023-05-06T10:58:20.287Z,49.48
2023-05-06T11:00:59.773Z,51.32
2023-05-06T11:11:00.802Z,42.73
2023-05-06T11:13:36.176Z,39.23
2023-05-06T11:20:27.827Z,41.53
2023-05-06T11:23:42.997Z,39.79
2023-05-06T11:26:32.196Z,40.21
2023-05-06T11:38:02.253Z,46.36
2023-05-06T11:40:51.224Z,48.36
2023-05-06T11:43:24.116Z,50.27
2023-05-06T11:46:05.165Z,52.90
2023-05-06T11:48:44.149Z,55.16
2023-05-06T11:51:27.042Z,56.56
2023-05-06T11:57:53.782Z,59.14
2023-05-06T12:00:27.056Z,59.47
2023-05-06T12:03:06.805Z,59.64
2023-05-06T12:05:42.557Z,59.22
2023-05-06T12:08:26.896Z,59.86
2023-05-06T12:11:09.701Z,59.54
2023-05-06T12:13:46.637Z,57.73
2023-05-06T12:16:33.059Z,58.91
2023-05-06T12:19:34.478Z,45.52
2023-05-06T12:40:06.016Z,35.35
2023-05-06T12:50:46.134Z,43.84
2023-05-06T13:08:39.773Z,45.07
2023-05-06T13:12:47.353Z,49.57
2023-05-06T13:18:27.380Z,50.10
2023-05-06T13:21:46.545Z,47.06
2023-05-06T13:24:48.062Z,44.10
2023-05-06T13:27:47.748Z,39.20
2023-05-06T13:36:29.852Z,41.78
2023-05-06T13:39:22.255Z,40.85
2023-05-06T13:42:19.990Z,38.98
2023-05-06T13:45:17.066Z,39.48
2023-05-06T13:51:48.647Z,41.07
2023-05-06T13:58:25.556Z,38.47
2023-05-06T14:01:21.437Z,39.77
2023-05-06T14:07:09.928Z,44.34
2023-05-06T14:10:19.556Z,48.74
2023-05-06T14:13:19.194Z,52.39
2023-05-06T14:16:07.343Z,54.08
2023-05-06T14:18:52.029Z,54.19
2023-05-06T14:24:47.803Z,55.89
2023-05-06T14:28:40.351Z,56.14
2023-05-06T14:31:12.548Z,55.54
2023-05-06T14:33:44.967Z,56.26
2023-05-06T14:36:20.757Z,56.40
2023-05-06T14:38:52.898Z,54.00
2023-05-06T14:41:25.267Z,52.92
2023-05-06T14:44:00.457Z,51.81
2023-05-06T14:46:32.688Z,51.94
2023-05-06T14:49:04.887Z,53.10
2023-05-06T14:51:37.157Z,53.24
2023-05-06T14:54:09.315Z,52.90
2023-05-06T14:56:41.943Z,52.92
2023-05-06T14:59:14.278Z,53.97
2023-05-06T15:01:46.548Z,54.48
2023-05-06T15:04:18.785Z,53.86
2023-05-06T15:06:51.018Z,55.05
2023-05-06T15:09:23.276Z,54.83
2023-05-06T15:11:55.490Z,54.44
2023-05-06T15:14:27.647Z,55.74
2023-05-06T15:16:59.845Z,57.10
2023-05-06T15:19:33.727Z,56.68
2023-05-06T15:22:05.981Z,55.55
2023-05-06T15:24:38.137Z,54.34
2023-05-06T15:27:10.433Z,54.33
2023-05-06T15:29:42.578Z,55.20
2023-05-06T15:32:15.157Z,55.57
2023-05-06T15:34:47.336Z,56.09
2023-05-06T15:37:19.653Z,57.38
2023-05-06T15:39:51.925Z,56.61
2023-05-06T15:42:24.056Z,59.23
2023-05-06T15:44:56.184Z,60.32
2023-05-06T15:47:28.275Z,61.02
2023-05-06T15:50:01.551Z,60.81
2023-05-06T15:52:33.897Z,60.60
2023-05-06T15:55:06.669Z,60.04
2023-05-06T15:57:39.079Z,59.43
2023-05-06T16:00:12.511Z,60.09
2023-05-06T16:02:45.242Z,60.06
2023-05-06T16:05:17.433Z,60.50
2023-05-06T16:07:49.858Z,60.75
2023-05-06T16:10:22.190Z,62.02
2023-05-06T16:12:54.550Z,63.91
2023-05-06T16:15:26.794Z,64.74
2023-05-06T16:17:58.926Z,66.31
2023-05-06T16:20:32.777Z,65.86
2023-05-06T16:23:05.548Z,66.65
2023-05-06T16:25:38.547Z,65.80
2023-05-06T16:28:10.889Z,66.45
2023-05-06T16:30:45.048Z,68.21
2023-05-06T16:33:17.153Z,70.76
2023-05-06T16:35:49.248Z,69.43
2023-05-06T16:38:21.458Z,69.85
2023-05-06T16:40:53.702Z,69.99
2023-05-06T16:43:25.894Z,70.39
2023-05-06T16:45:58.072Z,69.82
2023-05-06T16:48:30.248Z,69.93
2023-05-06T16:51:02.692Z,70.14
2023-05-06T16:53:34.780Z,70.74
2023-05-06T16:56:07.629Z,70.58
2023-05-06T16:58:39.974Z,71.24
2023-05-06T17:01:12.285Z,71.05
2023-05-06T17:03:44.490Z,72.31
2023-05-06T17:06:16.594Z,71.67
2023-05-06T17:08:48.830Z,72.10
2023-05-06T17:11:21.013Z,71.94
2023-05-06T17:13:55.051Z,72.92
2023-05-06T17:16:28.839Z,72.34
2023-05-06T17:19:01.641Z,73.04
2023-05-06T17:21:35.629Z,73.54
2023-05-06T17:24:13.089Z,73.59
2023-05-06T17:26:45.444Z,73.41
2023-05-06T17:29:17.845Z,72.75
2023-05-06T17:31:50.394Z,73.78
2023-05-06T17:34:22.827Z,74.07
2023-05-06T17:36:55.114Z,74.74
2023-05-06T17:39:27.559Z,75.26
2023-05-06T17:42:02.061Z,75.07
2023-05-06T17:44:35.560Z,76.14
2023-05-06T17:47:08.026Z,76.45
2023-05-06T17:49:40.264Z,77.26
2023-05-06T17:52:12.599Z,77.24
2023-05-06T17:54:45.384Z,77.17
2023-05-06T17:57:18.288Z,77.95
2023-05-06T17:59:50.505Z,77.91
2023-05-06T18:02:22.899Z,78.23
2023-05-06T18:04:55.088Z,78.18
2023-05-06T18:07:27.296Z,78.81
2023-05-06T18:09:59.440Z,78.40
2023-05-06T18:12:32.172Z,78.96
2023-05-06T18:15:06.106Z,78.71
2023-05-06T18:17:38.476Z,80.30
2023-05-06T18:20:11.692Z,80.47
2023-05-06T18:22:44.104Z,80.55
2023-05-06T18:25:16.596Z,81.08
2023-05-06T18:27:49.669Z,80.77
2023-05-06T18:30:22.102Z,80.71
2023-05-06T18:32:56.501Z,80.30
2023-05-06T18:35:30.360Z,81.31
2023-05-06T18:38:03.168Z,81.63
2023-05-06T18:40:36.772Z,80.84
2023-05-06T18:43:08.967Z,81.24
2023-05-06T18:45:42.792Z,80.48
2023-05-06T18:48:17.903Z,81.79
2023-05-06T18:50:51.179Z,82.24
2023-05-06T18:53:23.385Z,82.78
2023-05-06T18:55:55.475Z,83.22
2023-05-06T18:58:27.763Z,83.84
2023-05-06T19:01:00.429Z,84.05
2023-05-06T19:03:35.163Z,84.61
2023-05-06T19:06:10.798Z,85.35
2023-05-06T19:08:43.159Z,85.15
2023-05-06T19:11:18.299Z,85.46
2023-05-06T19:13:52.337Z,86.00
2023-05-06T19:16:24.512Z,86.58
2023-05-06T19:18:56.693Z,86.63
2023-05-06T19:21:29.124Z,86.71
2023-05-06T19:24:01.846Z,87.15
2023-05-06T19:26:33.979Z,87.82
2023-05-06T19:29:06.396Z,87.27
2023-05-06T19:31:38.774Z,88.43
2023-05-06T19:34:10.952Z,87.71
2023-05-06T19:36:43.712Z,88.67
2023-05-06T19:39:16.589Z,88.18
2023-05-06T19:41:48.835Z,88.97
2023-05-06T19:44:21.058Z,89.00
2023-05-06T19:46:56.633Z,89.21
2023-05-06T19:49:30.726Z,89.06
2023-05-06T19:52:02.814Z,89.10
2023-05-06T19:54:34.942Z,89.27
2023-05-06T19:57:07.205Z,88.88
2023-05-06T19:59:39.317Z,89.65
2023-05-06T20:02:13.606Z,88.88
2023-05-06T20:04:46.336Z,89.10
2023-05-06T20:07:20.553Z,89.34
2023-05-06T20:09:55.719Z,88.64
2023-05-06T20:12:27.931Z,88.20
2023-05-06T20:15:00.133Z,88.00
2023-05-06T20:17:32.291Z,87.67
2023-05-06T20:20:09.908Z,88.30
2023-05-06T20:22:42.146Z,87.23
2023-05-06T20:25:17.682Z,86.70
2023-05-06T20:27:49.868Z,87.51
2023-05-06T20:30:22.234Z,87.46
2023-05-06T20:32:54.765Z,87.69
2023-05-06T20:35:27.537Z,87.73
2023-05-06T20:37:59.928Z,87.29
2023-05-06T20:40:33.108Z,87.17
2023-05-06T20:43:05.232Z,87.23
2023-05-06T20:45:40.738Z,87.00
2023-05-06T20:48:14.883Z,86.52
2023-05-06T20:50:47.556Z,86.98
2023-05-06T20:53:20.360Z,88.04
2023-05-06T20:55:52.582Z,87.57
2023-05-06T20:58:24.755Z,86.31
2023-05-06T21:00:57.849Z,86.62
2023-05-06T21:03:30.672Z,87.39
2023-05-06T21:06:03.284Z,87.46
2023-05-06T21:08:35.514Z,87.88
2023-05-06T21:11:07.626Z,88.22
2023-05-06T21:13:40.995Z,87.26
2023-05-06T21:16:13.145Z,87.75
2023-05-06T21:18:45.298Z,87.61
2023-05-06T21:21:17.494Z,86.97
2023-05-06T21:23:49.557Z,87.46
2023-05-06T21:26:21.920Z,87.27
2023-05-06T21:28:53.967Z,86.91
2023-05-06T21:31:27.016Z,87.15
2023-05-06T21:33:59.569Z,87.72
2023-05-06T21:36:31.705Z,87.48
2023-05-06T21:39:10.966Z,87.03
2023-05-06T21:41:43.862Z,86.59
2023-05-06T21:44:16.344Z,86.92
2023-05-06T21:46:48.627Z,86.88
2023-05-06T21:49:22.400Z,86.82
2023-05-06T21:51:54.575Z,86.69
2023-05-06T21:54:26.647Z,85.60
2023-05-06T21:56:58.780Z,85.93
2023-05-06T21:59:30.875Z,85.51
2023-05-06T22:02:04.303Z,85.26
2023-05-06T22:04:36.634Z,85.37
2023-05-06T22:07:08.973Z,85.88
2023-05-06T22:09:41.051Z,85.84
2023-05-06T22:12:13.506Z,86.96
2023-05-06T22:14:46.185Z,87.15
2023-05-06T22:17:18.561Z,86.92
2023-05-06T22:19:51.867Z,87.85
2023-05-06T22:22:24.976Z,87.67
2023-05-06T22:24:57.031Z,87.42
2023-05-06T22:27:29.440Z,88.08
2023-05-06T22:30:01.898Z,88.66
2023-05-06T22:32:34.002Z,88.38
2023-05-06T22:35:07.111Z,88.55
2023-05-06T22:37:40.402Z,88.08
2023-05-06T22:40:13.178Z,87.70
2023-05-06T22:42:45.733Z,88.28
2023-05-06T22:45:17.918Z,88.63
2023-05-06T22:47:50.177Z,88.59
2023-05-06T22:50:22.583Z,88.54
2023-05-06T22:52:54.847Z,89.04
2023-05-06T22:55:27.045Z,88.58
2023-05-06T22:57:59.286Z,89.79
2023-05-06T23:00:31.442Z,89.38
2023-05-06T23:03:03.865Z,88.77
2023-05-06T23:05:36.079Z,88.37
2023-05-06T23:08:08.550Z,88.05
2023-05-06T23:10:40.942Z,88.28
2023-05-06T23:13:13.370Z,88.55
2023-05-06T23:15:45.585Z,88.96
2023-05-06T23:18:18.030Z,88.40
2023-05-06T23:20:50.127Z,87.34
2023-05-06T23:23:22.284Z,87.55
2023-05-06T23:25:54.410Z,89.06
2023-05-06T23:28:26.610Z,89.04
2023-05-06T23:30:58.812Z,89.20
2023-05-06T23:33:31.061Z,89.59
2023-05-06T23:36:03.526Z,88.66
2023-05-06T23:38:35.914Z,89.06
2023-05-06T23:41:08.042Z,88.85
2023-05-06T23:43:41.162Z,89.39
2023-05-06T23:46:13.379Z,89.81
2023-05-06T23:49:17.695Z,89.68
2023-05-06T23:51:49.773Z,88.81
2023-05-06T23:54:21.898Z,88.86
2023-05-06T23:56:54.126Z,88.62
2023-05-06T23:59:26.219Z,88.61
